Time;durP1;ratioP1;P1;durP2;ratioP2;P2;SDS_P1;SDS_P2;PMS_P1;PMS_P2;Temp;Humidity;BMP_temperature;BMP_pressure;BME280_temperature;BME280_humidity;BME280_pressure;Samples;Min_cycle;Max_cycle;Signal;HPM_P1;HPM_P2
2021/05/09 00:00:34;;;;;;;24.10;12.95;;;;;;;10.32;49.52;100361.47;5053895;27;98695;-74
2021/05/09 00:03:00;;;;;;;21.65;13.10;;;;;;;10.24;50.23;100366.94;5073140;27;98059;-74
2021/05/09 00:05:26;;;;;;;22.10;12.88;;;;;;;10.19;49.81;100353.97;5037631;27;96544;-72
2021/05/09 00:07:51;;;;;;;22.92;12.48;;;;;;;10.06;50.29;100354.38;5021002;27;96771;-75
2021/05/09 00:10:18;;;;;;;24.35;14.20;;;;;;;10.02;50.71;100358.88;5054523;27;98358;-75
2021/05/09 00:12:44;;;;;;;28.42;13.35;;;;;;;9.92;50.73;100349.59;5054366;27;97307;-75
2021/05/09 00:15:11;;;;;;;25.10;12.80;;;;;;;9.93;50.89;100352.16;5038298;27;96581;-74
2021/05/09 00:17:38;;;;;;;22.50;13.18;;;;;;;9.96;51.36;100348.56;5054257;27;96809;-74
2021/05/09 00:20:09;;;;;;;25.42;13.45;;;;;;;10.01;51.13;100356.31;5053957;27;99225;-74
2021/05/09 00:22:34;;;;;;;22.70;13.53;;;;;;;10.04;50.82;100351.81;5051770;27;101572;-74
2021/05/09 00:25:00;;;;;;;22.27;14.15;;;;;;;10.01;51.63;100351.06;5055047;27;97383;-74
2021/05/09 00:27:26;;;;;;;21.85;12.95;;;;;;;9.90;51.88;100356.63;5054657;27;97203;-72
2021/05/09 00:29:51;;;;;;;23.98;14.40;;;;;;;9.83;52.02;100353.34;5054122;27;97843;-74
2021/05/09 00:32:17;;;;;;;28.35;14.52;;;;;;;9.84;51.89;100347.19;5056304;27;98978;-74
2021/05/09 00:34:42;;;;;;;22.50;13.75;;;;;;;9.72;52.61;100342.34;5057028;27;97041;-74
2021/05/09 00:37:08;;;;;;;23.98;14.38;;;;;;;9.65;52.53;100336.38;5041695;27;96790;-74
2021/05/09 00:39:33;;;;;;;24.70;14.38;;;;;;;9.58;52.95;100340.13;5057007;27;98255;-74
2021/05/09 00:42:03;;;;;;;26.08;14.48;;;;;;;9.55;52.92;100337.59;5040579;27;97973;-74
2021/05/09 00:44:29;;;;;;;25.60;14.73;;;;;;;9.55;52.58;100334.09;5023279;27;96580;-72
2021/05/09 00:46:55;;;;;;;25.08;14.63;;;;;;;9.55;53.19;100332.34;5057543;27;96918;-74
2021/05/09 00:49:20;;;;;;;24.25;15.18;;;;;;;9.49;53.11;100333.38;5058016;27;97265;-74
2021/05/09 00:51:48;;;;;;;24.83;13.80;;;;;;;9.39;53.37;100342.41;5056571;27;101098;-74
2021/05/09 00:54:16;;;;;;;23.40;13.88;;;;;;;9.34;53.14;100335.56;5040719;27;96607;-74
2021/05/09 00:56:42;;;;;;;27.55;14.10;;;;;;;9.44;53.05;100329.19;5040312;27;96829;-74
2021/05/09 00:59:08;;;;;;;23.23;13.43;;;;;;;9.46;52.51;100333.47;5057643;27;97950;-74
2021/05/09 01:01:36;;;;;;;24.15;13.73;;;;;;;9.39;53.28;100331.06;5040274;27;97849;-74
2021/05/09 01:04:02;;;;;;;22.17;13.23;;;;;;;9.36;52.94;100334.63;5024222;27;97046;-74
2021/05/09 01:06:29;;;;;;;22.20;12.75;;;;;;;9.31;53.20;100333.94;5040693;27;96914;-74
2021/05/09 01:08:55;;;;;;;24.90;13.68;;;;;;;9.17;53.26;100328.22;5039625;27;97952;-74
2021/05/09 01:11:20;;;;;;;21.30;13.40;;;;;;;9.13;53.29;100329.19;5040757;27;97898;-74
2021/05/09 01:13:46;;;;;;;23.38;12.77;;;;;;;9.15;53.12;100324.78;5056818;27;97149;-74
2021/05/09 01:16:12;;;;;;;21.50;12.95;;;;;;;9.28;52.87;100319.16;5057520;27;96995;-74
2021/05/09 01:18:38;;;;;;;19.35;12.25;;;;;;;9.28;52.86;100324.38;5039576;27;99129;-74
2021/05/09 01:21:03;;;;;;;23.10;13.50;;;;;;;9.26;52.77;100320.09;5040237;27;98052;-74
2021/05/09 01:23:29;;;;;;;22.52;13.07;;;;;;;9.23;52.81;100323.66;5023669;27;96794;-73
2021/05/09 01:25:55;;;;;;;21.00;12.40;;;;;;;9.12;53.33;100319.63;5040156;27;96830;-74
2021/05/09 01:28:21;;;;;;;21.60;12.68;;;;;;;9.01;53.45;100322.53;5057109;27;98348;-74
2021/05/09 01:30:46;;;;;;;21.35;12.10;;;;;;;9.01;53.23;100320.75;5039453;27;97765;-74
2021/05/09 01:33:12;;;;;;;20.65;12.38;;;;;;;8.95;53.72;100328.78;5056480;27;96742;-74
2021/05/09 01:35:37;;;;;;;21.85;12.32;;;;;;;8.93;53.18;100324.50;5056244;27;96935;-74
2021/05/09 01:38:04;;;;;;;21.45;11.73;;;;;;;8.99;53.20;100330.44;5056795;27;99037;-74
2021/05/09 01:40:30;;;;;;;21.20;13.20;;;;;;;8.93;53.32;100321.88;5057080;27;97906;-74
2021/05/09 01:42:56;;;;;;;23.63;13.20;;;;;;;8.84;53.52;100316.00;5073876;27;96478;-74
2021/05/09 01:45:23;;;;;;;22.15;12.98;;;;;;;8.89;53.47;100323.72;5057470;27;96746;-74
2021/05/09 01:47:49;;;;;;;23.23;13.37;;;;;;;8.77;53.68;100318.81;5055742;27;100978;-74
2021/05/09 01:50:16;;;;;;;23.10;14.70;;;;;;;8.73;53.83;100318.06;5056919;27;99357;-74
2021/05/09 01:52:42;;;;;;;24.55;14.73;;;;;;;8.76;53.74;100315.34;5056201;27;97438;-74
2021/05/09 01:55:18;;;;;;;24.07;13.80;;;;;;;8.57;54.16;100320.19;5056885;27;96977;-74
2021/05/09 01:57:47;;;;;;;20.97;13.83;;;;;;;8.50;54.47;100312.56;5038847;27;98286;-73
2021/05/09 02:00:20;;;;;;;24.37;14.47;;;;;;;8.52;54.31;100311.63;5057284;27;99749;-74
2021/05/09 02:02:54;;;;;;;20.33;13.52;;;;;;;8.42;54.69;100301.44;5055856;27;96704;-75
2021/05/09 02:05:26;;;;;;;;;;;;;;;8.46;54.57;100301.28;5042036;27;96795;-75
2021/05/09 02:07:52;;;;;;;24.23;13.77;;;;;;;8.41;54.85;100297.97;5055621;27;100258;-74
2021/05/09 02:10:18;;;;;;;25.65;13.20;;;;;;;8.32;54.95;100293.78;5056240;27;97989;-74
2021/05/09 02:12:44;;;;;;;25.17;18.43;;;;;;;8.41;54.82;100294.47;5038896;27;97170;-74
2021/05/09 02:15:21;;;;;;;24.17;13.73;;;;;;;8.36;54.76;100294.56;5041616;27;96850;-75
2021/05/09 02:17:48;;;;;;;22.10;14.57;;;;;;;8.37;54.74;100280.56;5038446;27;101916;-74
2021/05/09 02:20:19;;;;;;;23.08;14.13;;;;;;;8.20;55.16;100299.28;5039974;27;101284;-74
2021/05/09 02:22:45;;;;;;;24.30;14.27;;;;;;;8.25;55.03;100302.66;5073389;27;97214;-74
2021/05/09 02:25:10;;;;;;;23.10;14.07;;;;;;;8.23;55.26;100300.97;5039434;27;97067;-74
2021/05/09 02:27:37;;;;;;;26.40;12.73;;;;;;;8.19;55.38;100301.97;5038720;27;101406;-71
2021/05/09 02:30:05;;;;;;;22.35;13.75;;;;;;;8.19;55.43;100297.59;5039025;27;101713;-74
2021/05/09 02:32:31;;;;;;;24.08;14.68;;;;;;;8.07;55.27;100290.91;5039555;27;97069;-74
2021/05/09 02:34:57;;;;;;;23.07;13.50;;;;;;;8.13;55.27;100298.59;5038306;27;97449;-74
2021/05/09 02:37:23;;;;;;;24.90;14.27;;;;;;;8.14;55.50;100296.84;5074345;27;98004;-74
2021/05/09 02:39:49;;;;;;;23.07;14.13;;;;;;;8.13;55.47;100295.97;5055247;27;100931;-74
2021/05/09 02:42:15;;;;;;;23.60;14.27;;;;;;;8.02;55.93;100284.91;5055994;27;97425;-74
2021/05/09 02:44:41;;;;;;;22.50;13.37;;;;;;;8.10;55.75;100295.19;5055378;27;96791;-73
2021/05/09 02:47:07;;;;;;;22.37;14.27;;;;;;;8.08;55.60;100291.75;5055188;27;97893;-74
2021/05/09 02:49:32;;;;;;;22.10;13.30;;;;;;;8.06;55.67;100297.03;5055994;27;98015;-74
2021/05/09 02:52:00;;;;;;;22.00;13.27;;;;;;;7.99;56.09;100299.81;5038633;27;96614;-74
2021/05/09 02:54:26;;;;;;;22.87;13.27;;;;;;;7.93;56.17;100288.59;5055952;27;96787;-74
2021/05/09 02:56:53;;;;;;;22.17;12.67;;;;;;;7.83;56.38;100281.91;5037830;27;99453;-74
2021/05/09 02:59:18;;;;;;;21.47;12.93;;;;;;;7.85;56.46;100289.69;5055473;27;101499;-74
2021/05/09 03:01:44;;;;;;;21.23;13.80;;;;;;;7.78;56.64;100295.97;5054888;27;96986;-74
2021/05/09 03:04:10;;;;;;;24.33;14.17;;;;;;;7.84;56.32;100293.22;5056257;27;96801;-74
2021/05/09 03:06:36;;;;;;;23.27;13.80;;;;;;;7.81;56.72;100295.88;5038745;27;101235;-74
2021/05/09 03:09:06;;;;;;;25.10;13.67;;;;;;;7.81;56.58;100291.50;5038921;27;101532;-74
2021/05/09 03:11:33;;;;;;;20.90;13.10;;;;;;;7.77;56.74;100283.81;5038231;27;97264;-74
2021/05/09 03:13:59;;;;;;;19.67;13.20;;;;;;;7.74;57.02;100289.97;5055178;27;97220;-74
2021/05/09 03:16:25;;;;;;;21.47;12.93;;;;;;;7.67;57.34;100290.97;5038207;27;101813;-74
2021/05/09 03:18:50;;;;;;;25.20;13.97;;;;;;;7.70;56.76;100281.31;5054631;27;98454;-73
2021/05/09 03:21:16;;;;;;;19.27;12.83;;;;;;;7.70;56.90;100283.06;5038919;27;97050;-74
2021/05/09 03:23:42;;;;;;;21.00;13.40;;;;;;;7.67;57.27;100291.81;5055303;27;96925;-72
2021/05/09 03:26:07;;;;;;;21.17;13.20;;;;;;;7.72;57.00;100289.97;5055171;27;98627;-74
2021/05/09 03:28:33;;;;;;;21.40;12.03;;;;;;;7.75;57.11;100289.06;5038749;27;99396;-74
2021/05/09 03:30:59;;;;;;;22.77;13.17;;;;;;;7.74;56.93;100294.28;5037747;27;96682;-74
2021/05/09 03:33:24;;;;;;;20.30;13.23;;;;;;;7.70;57.31;100288.28;5038937;27;96990;-74
2021/05/09 03:35:50;;;;;;;21.63;12.53;;;;;;;7.79;57.04;100292.44;5054088;27;97517;-73
2021/05/09 03:38:16;;;;;;;20.87;12.27;;;;;;;7.83;56.78;100284.50;5054993;27;101071;-74
2021/05/09 03:40:41;;;;;;;20.13;13.37;;;;;;;7.93;57.00;100293.84;5072869;27;96556;-70
2021/05/09 03:43:10;;;;;;;23.40;12.90;;;;;;;7.84;56.80;100283.59;5054888;27;96819;-73
2021/05/09 03:45:36;;;;;;;23.00;13.67;;;;;;;7.82;57.04;100277.53;5073145;27;98256;-73
2021/05/09 03:48:01;;;;;;;21.37;13.00;;;;;;;7.82;57.14;100277.53;5037223;27;101375;-73
2021/05/09 03:50:27;;;;;;;21.73;12.77;;;;;;;7.78;57.09;100283.75;5073325;27;96524;-72
2021/05/09 03:52:52;;;;;;;20.93;13.17;;;;;;;7.80;57.27;100281.97;5054911;27;96826;-73
2021/05/09 03:55:18;;;;;;;21.37;12.53;;;;;;;7.88;57.04;100282.66;5055031;27;98469;-73
2021/05/09 03:57:43;;;;;;;21.40;12.50;;;;;;;7.87;57.08;100277.44;5037676;27;97915;-70
2021/05/09 04:00:09;;;;;;;22.87;12.53;;;;;;;7.91;57.08;100276.47;5054778;27;96479;-73
2021/05/09 04:02:42;;;;;;;22.13;13.50;;;;;;;7.83;57.02;100270.59;5054853;27;96958;-71
2021/05/09 04:05:10;;;;;;;21.07;12.23;;;;;;;7.87;56.92;100260.00;5054602;27;98131;-73
2021/05/09 04:07:36;;;;;;;20.13;12.67;;;;;;;7.94;56.83;100264.22;5041093;27;98001;-73
2021/05/09 04:10:03;;;;;;;21.07;12.53;;;;;;;8.00;56.50;100265.81;5057839;27;96620;-73
2021/05/09 04:12:29;;;;;;;20.33;12.98;;;;;;;8.12;56.28;100260.28;5041939;27;96761;-73
2021/05/09 04:14:55;;;;;;;22.27;13.07;;;;;;;8.31;56.43;100259.81;5057820;27;97929;-73
2021/05/09 04:17:20;;;;;;;20.67;12.90;;;;;;;8.41;56.19;100257.84;5058605;27;99320;-73
2021/05/09 04:19:46;;;;;;;21.65;12.20;;;;;;;8.60;55.86;100251.22;5058015;27;96508;-71
2021/05/09 04:22:11;;;;;;;22.70;12.93;;;;;;;8.69;55.62;100250.97;5041188;27;96524;-73
2021/05/09 04:24:37;;;;;;;22.15;12.95;;;;;;;8.91;54.56;100242.53;5057766;27;98188;-73
2021/05/09 04:27:02;;;;;;;19.60;11.82;;;;;;;9.32;53.99;100245.72;5040084;27;98521;-73
2021/05/09 04:29:28;;;;;;;17.70;11.90;;;;;;;10.29;52.11;100254.84;5076765;27;96500;-73
2021/05/09 04:31:53;;;;;;;22.25;12.18;;;;;;;12.26;47.89;100242.19;5057287;27;96873;-72
2021/05/09 04:34:19;;;;;;;21.42;11.73;;;;;;;14.40;43.65;100239.28;5057764;27;99293;-73
2021/05/09 04:36:45;;;;;;;18.55;11.43;;;;;;;16.11;40.25;100241.44;5040977;27;98417;-71
2021/05/09 04:39:10;;;;;;;18.10;10.98;;;;;;;17.79;37.34;100241.72;5057364;27;96580;-73
2021/05/09 04:41:36;;;;;;;19.35;11.55;;;;;;;18.59;35.89;100241.69;5039997;27;96984;-73
2021/05/09 04:44:01;;;;;;;20.50;11.02;;;;;;;19.21;34.93;100233.81;5057064;27;98082;-73
2021/05/09 04:46:27;;;;;;;15.02;10.43;;;;;;;19.57;34.29;100234.75;5057806;27;97775;-73
2021/05/09 04:48:52;;;;;;;17.25;10.23;;;;;;;20.04;33.77;100226.91;5056522;27;96706;-73
2021/05/09 04:51:18;;;;;;;14.10;9.95;;;;;;;20.34;33.45;100242.44;5040806;27;96883;-73
2021/05/09 04:53:44;;;;;;;15.77;10.43;;;;;;;20.69;32.75;100231.75;5074793;27;97374;-72
2021/05/09 04:56:09;;;;;;;15.80;10.93;;;;;;;20.88;32.63;100225.81;5039809;27;100888;-71
2021/05/09 04:58:37;;;;;;;14.73;10.32;;;;;;;20.92;32.10;100234.44;5041220;27;96690;-71
2021/05/09 05:01:04;;;;;;;14.27;10.52;;;;;;;21.19;32.25;100229.56;5039911;27;97075;-71
2021/05/09 05:03:30;;;;;;;15.05;10.02;;;;;;;21.17;31.92;100231.50;5057368;27;100954;-72
2021/05/09 05:05:56;;;;;;;14.23;9.57;;;;;;;21.09;32.19;100227.75;5057093;27;98348;-71
2021/05/09 05:08:22;;;;;;;17.25;9.40;;;;;;;21.29;32.19;100224.34;5057595;27;97488;-71
2021/05/09 05:10:49;;;;;;;15.98;9.68;;;;;;;21.06;32.27;100222.66;5040322;27;97160;-70
2021/05/09 05:13:22;;;;;;;14.63;9.20;;;;;;;21.41;31.93;100234.09;5039579;27;99680;-71
2021/05/09 05:15:50;;;;;;;13.73;9.05;;;;;;;21.69;31.73;100237.16;5057000;27;98907;-69
2021/05/09 05:18:16;;;;;;;12.32;9.27;;;;;;;21.97;31.36;100229.56;5039337;27;96513;-71
2021/05/09 05:20:42;;;;;;;13.73;8.60;;;;;;;22.48;30.98;100236.84;5057453;27;96910;-72
2021/05/09 05:23:08;;;;;;;13.45;8.73;;;;;;;22.67;30.55;100226.28;5039281;27;101006;-72
2021/05/09 05:25:34;;;;;;;13.45;8.82;;;;;;;22.65;30.85;100224.72;5056993;27;99363;-72
2021/05/09 05:28:00;;;;;;;18.73;15.20;;;;;;;22.88;30.50;100226.25;5075128;27;97091;-72
2021/05/09 05:30:26;;;;;;;10.68;7.95;;;;;;;23.01;30.17;100223.41;5057578;27;96899;-71
2021/05/09 05:32:52;;;;;;;11.30;8.65;;;;;;;23.08;30.38;100221.03;5056409;27;97916;-69
2021/05/09 05:35:17;;;;;;;13.30;10.63;;;;;;;23.19;30.25;100216.41;5056875;27;98557;-72
2021/05/09 05:37:43;;;;;;;12.75;11.20;;;;;;;23.20;29.84;100217.25;5040239;27;97160;-72
2021/05/09 05:40:09;;;;;;;12.90;7.93;;;;;;;23.83;29.42;100225.03;5039813;27;96866;-72
2021/05/09 05:42:34;;;;;;;10.00;7.00;;;;;;;24.57;28.54;100216.41;5056868;27;98078;-72
2021/05/09 05:45:00;;;;;;;10.32;7.28;;;;;;;25.03;28.08;100210.16;5038932;27;101172;-72
2021/05/09 05:47:25;;;;;;;11.48;7.68;;;;;;;25.18;27.80;100218.59;5057325;27;96938;-72
2021/05/09 05:49:55;;;;;;;10.05;7.40;;;;;;;25.11;28.02;100213.97;5039743;27;96954;-69
2021/05/09 05:52:20;;;;;;;9.43;8.20;;;;;;;24.97;28.01;100208.06;5057150;27;99224;-72
2021/05/09 05:54:46;;;;;;;10.32;8.75;;;;;;;25.51;27.68;100211.78;5057028;27;97910;-72
2021/05/09 05:57:11;;;;;;;10.43;8.23;;;;;;;25.64;27.61;100207.88;5056322;27;96597;-72
2021/05/09 05:59:37;;;;;;;12.73;11.30;;;;;;;25.79;27.41;100214.41;5057268;27;96882;-72
2021/05/09 06:02:02;;;;;;;10.05;7.28;;;;;;;26.04;26.91;100209.31;5073589;27;98004;-72
2021/05/09 06:04:28;;;;;;;11.50;7.20;;;;;;;26.33;27.19;100220.66;5056603;27;97760;-72
2021/05/09 06:06:53;;;;;;;13.77;7.10;;;;;;;26.59;26.55;100215.31;5056553;27;96742;-69
2021/05/09 06:09:19;;;;;;;9.02;6.93;;;;;;;27.08;26.27;100223.66;5056233;27;97004;-72
2021/05/09 06:11:44;;;;;;;10.80;7.25;;;;;;;27.13;26.10;100225.03;5056546;27;98284;-72
2021/05/09 06:14:10;;;;;;;9.05;7.32;;;;;;;27.26;26.22;100218.22;5055278;27;101083;-72
2021/05/09 06:16:35;;;;;;;9.50;7.20;;;;;;;27.64;25.95;100217.81;5056385;27;96636;-71
2021/05/09 06:19:01;;;;;;;9.43;6.97;;;;;;;28.20;25.42;100213.53;5074584;27;96810;-71
2021/05/09 06:21:27;;;;;;;9.05;6.70;;;;;;;29.12;24.84;100208.66;5055367;27;99851;-72
2021/05/09 06:23:52;;;;;;;8.75;6.32;;;;;;;29.65;24.40;100209.75;5055977;27;98758;-75
2021/05/09 06:26:18;;;;;;;7.47;6.38;;;;;;;29.98;23.46;100209.53;5072280;27;96597;-73
2021/05/09 06:28:43;;;;;;;7.57;5.88;;;;;;;30.09;23.32;100211.81;5056194;27;96855;-73
2021/05/09 06:31:09;;;;;;;6.50;5.65;;;;;;;30.24;23.47;100209.16;5055073;27;98277;-72
2021/05/09 06:33:35;;;;;;;9.68;5.63;;;;;;;30.25;23.22;100207.31;5038925;27;101157;-74
2021/05/09 06:36:00;;;;;;;8.68;7.78;;;;;;;30.67;22.65;100198.59;5055714;27;96611;-74
2021/05/09 06:38:26;;;;;;;8.98;6.05;;;;;;;31.07;22.43;100210.03;5074790;27;96805;-75
2021/05/09 06:40:51;;;;;;;5.90;5.20;;;;;;;30.93;22.54;100200.03;5055457;27;98017;-75
2021/05/09 06:43:18;;;;;;;7.10;5.20;;;;;;;31.02;22.85;100207.88;5055733;27;97565;-74
2021/05/09 06:45:44;;;;;;;7.15;5.70;;;;;;;31.22;22.70;100189.16;5056610;27;96568;-74
2021/05/09 06:48:11;;;;;;;7.18;5.88;;;;;;;31.27;22.75;100199.41;5055154;27;97150;-74
2021/05/09 06:50:36;;;;;;;6.50;5.50;;;;;;;31.27;22.25;100196.72;5055398;27;99406;-74
2021/05/09 06:53:03;;;;;;;11.45;10.45;;;;;;;31.54;22.40;100206.88;5020988;27;99308;-74
2021/05/09 06:55:29;;;;;;;6.53;5.20;;;;;;;31.27;22.74;100202.13;5056107;27;97020;-74
2021/05/09 06:57:55;;;;;;;8.95;5.53;;;;;;;30.83;22.97;100200.31;5056046;27;96947;-74
2021/05/09 07:00:21;;;;;;;10.25;5.28;;;;;;;30.55;23.43;100205.50;5038007;27;101456;-74
2021/05/09 07:02:47;;;;;;;6.28;5.18;;;;;;;30.97;23.27;100207.59;5055859;27;97873;-74
2021/05/09 07:05:13;;;;;;;7.35;4.82;;;;;;;31.28;23.15;100201.97;5072169;27;97183;-74
2021/05/09 07:08:05;;;;;;;5.95;5.13;;;;;;;31.40;22.99;100202.34;5074660;27;96936;-74
2021/05/09 07:10:34;;;;;;;8.13;5.35;;;;;;;32.12;22.59;100203.31;5050070;27;99720;-74
2021/05/09 07:12:59;;;;;;;5.45;4.90;;;;;;;32.41;22.22;100199.59;5054877;27;97756;-72
2021/05/09 07:15:32;;;;;;;5.97;4.50;;;;;;;32.64;22.08;100200.19;5055243;27;96803;-74
2021/05/09 07:20:33;;;;;;;5.18;4.68;;;;;;;33.03;21.87;100185.16;5055790;27;99705;-73
2021/05/09 07:22:59;;;;;;;5.95;4.57;;;;;;;33.45;21.51;100185.94;5054785;27;100867;-70
2021/05/09 07:25:25;;;;;;;5.40;4.25;;;;;;;33.93;20.90;100187.75;5055157;27;96586;-72
2021/05/09 07:27:50;;;;;;;6.13;5.13;;;;;;;33.84;21.09;100191.72;5055683;27;96793;-73
2021/05/09 07:30:17;;;;;;;7.13;4.70;;;;;;;33.35;21.27;100190.94;5054887;27;97217;-73
2021/05/09 07:32:43;;;;;;;4.72;4.22;;;;;;;33.03;21.60;100189.78;5038887;27;97845;-73
2021/05/09 07:35:09;;;;;;;6.57;4.40;;;;;;;32.59;22.21;100186.38;5054822;27;97321;-73
2021/05/09 07:37:34;;;;;;;5.68;4.88;;;;;;;32.90;22.16;100180.50;5073931;27;96952;-73
2021/05/09 07:40:00;;;;;;;7.75;4.70;;;;;;;33.81;21.62;100188.38;5054162;27;99485;-70
2021/05/09 07:42:26;;;;;;;6.35;4.75;;;;;;;33.97;21.21;100178.13;5057031;27;98402;-73
2021/05/09 07:44:55;;;;;;;5.82;4.78;;;;;;;34.52;20.64;100186.91;5058806;27;96886;-75
2021/05/09 07:47:20;;;;;;;5.35;4.57;;;;;;;34.64;20.87;100192.59;5076571;27;97278;-73
2021/05/09 07:49:46;;;;;;;4.97;4.25;;;;;;;33.97;21.44;100173.50;5024786;27;101219;-73
2021/05/09 07:52:12;;;;;;;5.07;4.20;;;;;;;33.74;21.42;100178.50;5057861;27;97975;-74
2021/05/09 07:54:38;;;;;;;4.57;3.83;;;;;;;33.36;21.93;100182.56;5058887;27;96947;-73
2021/05/09 07:57:04;;;;;;;4.28;3.78;;;;;;;34.10;21.00;100180.06;5058741;27;96787;-70
2021/05/09 07:59:32;;;;;;;4.78;3.63;;;;;;;34.77;20.64;100178.94;5041297;27;99284;-73
2021/05/09 08:01:57;;;;;;;4.88;3.60;;;;;;;35.12;20.28;100176.75;5057525;27;98860;-73
2021/05/09 08:04:23;;;;;;;4.10;3.70;;;;;;;35.45;20.46;100177.63;5057411;27;96624;-73
2021/05/09 08:06:48;;;;;;;9.40;4.18;;;;;;;35.18;20.14;100182.38;5041595;27;96981;-73
2021/05/09 08:09:14;;;;;;;6.82;3.95;;;;;;;35.23;20.05;100182.56;5057757;27;97271;-73
2021/05/09 08:11:40;;;;;;;4.93;3.92;;;;;;;35.01;20.01;100169.19;5058172;27;100771;-72
2021/05/09 08:14:05;;;;;;;4.57;3.53;;;;;;;35.08;20.74;100172.78;5058107;27;96635;-72
2021/05/09 08:16:31;;;;;;;4.97;3.40;;;;;;;35.43;20.53;100166.91;5075897;27;96915;-73
2021/05/09 08:18:56;;;;;;;5.28;3.75;;;;;;;35.22;20.59;100170.81;5058163;27;99381;-73
2021/05/09 08:21:22;;;;;;;8.18;7.47;;;;;;;35.46;20.46;100173.84;5057870;27;97881;-72
2021/05/09 08:23:47;;;;;;;4.43;3.17;;;;;;;35.82;19.84;100176.78;5058609;27;96573;-74
2021/05/09 08:26:13;;;;;;;3.30;2.40;;;;;;;35.40;19.37;100167.34;5057775;27;96901;-72
2021/05/09 08:28:41;;;;;;;3.38;2.53;;;;;;;35.12;19.18;100165.00;5057427;27;101196;-73
2021/05/09 08:31:09;;;;;;;3.58;2.08;;;;;;;35.41;19.07;100162.75;5073422;27;98739;-72
2021/05/09 08:33:35;;;;;;;4.85;2.25;;;;;;;35.20;19.31;100161.16;5058588;27;97057;-73
2021/05/09 08:36:01;;;;;;;4.35;2.30;;;;;;;35.20;19.14;100155.72;5058150;27;97117;-73
2021/05/09 08:38:26;;;;;;;2.90;2.42;;;;;;;35.18;18.78;100149.66;5073626;27;99499;-73
2021/05/09 08:40:52;;;;;;;2.50;1.80;;;;;;;35.27;18.67;100159.25;5023160;27;101753;-76
2021/05/09 08:43:17;;;;;;;3.97;1.88;;;;;;;34.70;18.42;100159.88;5057576;27;97447;-76
2021/05/09 08:45:43;;;;;;;4.72;2.20;;;;;;;34.55;18.00;100156.53;5041339;27;96655;-73
2021/05/09 08:48:14;;;;;;;3.45;1.58;;;;;;;34.22;18.57;100151.13;5057084;27;98109;-72
2021/05/09 08:50:39;;;;;;;4.03;2.13;;;;;;;33.57;19.17;100161.75;5056864;27;99812;-73
2021/05/09 08:53:05;;;;;;;4.72;1.92;;;;;;;32.96;19.43;100157.09;5057199;27;96712;-71
2021/05/09 08:55:30;;;;;;;1.75;1.48;;;;;;;32.41;19.88;100150.69;5057468;27;96905;-73
2021/05/09 08:57:57;;;;;;;2.17;1.70;;;;;;;32.03;20.46;100151.03;5057289;27;100237;-74
2021/05/09 09:00:24;;;;;;;2.85;1.88;;;;;;;31.26;21.28;100149.78;5056910;27;97756;-73
2021/05/09 09:02:50;;;;;;;3.63;1.40;;;;;;;30.88;21.60;100151.81;5024255;27;96978;-73
2021/05/09 09:05:16;;;;;;;3.17;1.20;;;;;;;30.20;22.21;100149.13;5039924;27;96930;-73
2021/05/09 09:07:52;;;;;;;2.47;1.52;;;;;;;29.44;22.76;100147.31;5057116;27;98094;-73
2021/05/09 09:10:37;;;;;;;3.78;1.50;;;;;;;29.00;22.74;100148.75;5040012;27;100849;-73
2021/05/09 09:13:19;;;;;;;2.22;1.30;;;;;;;28.49;23.00;100144.69;5057962;27;97037;-73
2021/05/09 09:15:50;;;;;;;2.47;1.50;;;;;;;28.19;23.90;100141.69;5040571;27;97165;-73
2021/05/09 09:18:38;;;;;;;2.17;1.42;;;;;;;27.81;23.07;100151.28;5074428;27;97935;-72
2021/05/09 09:21:25;;;;;;;3.13;1.70;;;;;;;27.40;23.38;100144.00;5040372;27;101516;-73
2021/05/09 09:23:57;;;;;;;2.30;1.88;;;;;;;27.40;23.26;100135.91;5057249;27;96750;-73
2021/05/09 09:26:34;;;;;;;3.42;1.60;;;;;;;27.08;22.96;100139.28;5074828;27;96992;-73
2021/05/09 09:29:02;;;;;;;4.00;1.38;;;;;;;26.77;23.73;100136.34;5040058;27;99622;-72
2021/05/09 09:31:44;;;;;;;1.45;1.00;;;;;;;26.52;24.98;100138.03;5055969;27;101888;-74
2021/05/09 09:34:10;;;;;;;4.22;1.30;;;;;;;26.59;25.00;100142.63;5056684;27;96709;-70
2021/05/09 09:36:37;;;;;;;2.08;1.30;;;;;;;26.55;24.68;100137.72;5075914;27;96866;-73
2021/05/09 09:39:04;;;;;;;2.63;1.30;;;;;;;26.46;24.45;100130.59;5056995;27;98113;-74
2021/05/09 09:41:30;;;;;;;2.10;1.50;;;;;;;26.32;25.20;100130.16;5054809;27;101442;-73
2021/05/09 09:44:07;;;;;;;1.63;1.38;;;;;;;26.04;25.35;100132.16;5040046;27;96614;-72
2021/05/09 09:46:33;;;;;;;2.13;1.38;;;;;;;25.87;25.51;100135.72;5056396;27;96903;-73
2021/05/09 09:49:00;;;;;;;5.70;1.88;;;;;;;25.65;25.92;100124.41;5056836;27;97811;-73
2021/05/09 09:51:26;;;;;;;2.30;1.25;;;;;;;25.59;26.44;100127.72;5056149;27;97569;-73
2021/05/09 09:53:53;;;;;;;1.73;1.30;;;;;;;25.50;26.42;100121.41;5056919;27;96694;-74
2021/05/09 09:56:27;;;;;;;2.75;1.60;;;;;;;25.48;26.81;100119.88;5056243;27;96844;-73
2021/05/09 09:59:03;;;;;;;4.03;1.45;;;;;;;25.19;27.88;100122.75;5056451;27;99609;-73
2021/05/09 10:01:36;;;;;;;2.95;1.33;;;;;;;25.24;27.18;100107.88;5056064;27;97969;-73
2021/05/09 10:04:07;;;;;;;4.10;1.50;;;;;;;25.01;27.66;100117.34;5056363;27;96794;-73
2021/05/09 10:06:34;;;;;;;3.65;2.03;;;;;;;24.87;27.25;100109.78;5056073;27;97059;-73
2021/05/09 10:09:00;;;;;;;4.97;1.27;;;;;;;24.84;27.30;100122.53;5039175;27;97941;-73
2021/05/09 10:11:30;;;;;;;5.32;1.17;;;;;;;24.70;27.73;100112.28;5055640;27;98041;-73
2021/05/09 10:13:57;;;;;;;2.35;1.30;;;;;;;24.57;28.03;100115.28;5056421;27;96777;-73
2021/05/09 10:16:24;;;;;;;2.22;1.33;;;;;;;24.49;28.08;100096.38;5055991;27;96835;-73
2021/05/09 10:18:58;;;;;;;2.17;1.40;;;;;;;24.35;28.74;100105.75;5074383;27;99893;-73
2021/05/09 10:21:32;;;;;;;2.33;1.40;;;;;;;24.24;28.66;100111.28;5073727;27;97502;-73
2021/05/09 10:24:10;;;;;;;4.85;1.38;;;;;;;24.24;28.43;100100.56;5075344;27;96569;-73
2021/05/09 10:27:04;;;;;;;2.65;1.38;;;;;;;24.21;28.85;100102.69;5039076;27;96662;-73
2021/05/09 10:29:32;;;;;;;3.85;1.30;;;;;;;24.09;28.93;100093.97;5070092;27;98035;-73
2021/05/09 10:32:08;;;;;;;2.65;1.20;;;;;;;24.06;28.25;100097.78;5074150;27;97701;-73
2021/05/09 10:34:56;;;;;;;2.53;1.45;;;;;;;23.94;28.74;100107.81;5054671;27;96672;-73
2021/05/09 10:37:37;;;;;;;1.60;1.20;;;;;;;23.87;28.55;100087.09;5055254;27;96822;-73
2021/05/09 10:40:32;;;;;;;1.75;1.10;;;;;;;23.83;29.36;100089.22;5055582;27;100252;-73
2021/05/09 10:43:18;;;;;;;3.22;1.40;;;;;;;23.75;29.38;100088.22;5055937;27;97827;-73
2021/05/09 10:45:43;;;;;;;2.90;1.60;;;;;;;23.78;29.87;100087.94;5060015;27;96818;-73
2021/05/09 10:48:22;;;;;;;1.92;1.10;;;;;;;23.72;29.90;100086.69;5056316;27;97123;-73
2021/05/09 10:50:48;;;;;;;4.22;1.38;;;;;;;23.71;29.50;100085.84;5074287;27;98059;-73
2021/05/09 10:53:33;;;;;;;2.28;1.05;;;;;;;23.66;30.14;100077.34;5038840;27;101320;-70
2021/05/09 10:56:02;;;;;;;2.17;1.50;;;;;;;23.72;30.03;100075.97;5074290;27;96442;-73
2021/05/09 10:58:45;;;;;;;3.30;1.42;;;;;;;23.63;29.64;100071.44;5055144;27;96804;-73
2021/05/09 11:01:23;;;;;;;2.20;1.08;;;;;;;23.49;29.46;100078.06;5055295;27;98146;-73
2021/05/09 11:03:52;;;;;;;1.77;1.20;;;;;;;23.39;29.89;100077.22;5038809;27;99716;-74
2021/05/09 11:06:25;;;;;;;2.30;1.02;;;;;;;23.39;30.40;100063.84;5055252;27;96582;-71
2021/05/09 11:08:54;;;;;;;1.92;1.27;;;;;;;23.38;30.26;100057.59;5055877;27;96868;-74
2021/05/09 11:11:25;;;;;;;3.13;1.90;;;;;;;23.40;30.03;100081.59;5054573;27;98187;-72
2021/05/09 11:16:27;;;;;;;1.35;1.13;;;;;;;23.23;30.31;100057.19;5054260;27;96677;-73
2021/05/09 11:19:17;;;;;;;3.40;1.30;;;;;;;23.15;30.44;100069.56;5056294;27;97065;-73
2021/05/09 11:21:49;;;;;;;2.08;1.20;;;;;;;23.03;30.50;100061.66;5037786;27;99849;-73
2021/05/09 11:24:34;;;;;;;1.70;1.25;;;;;;;22.99;30.54;100062.94;5055755;27;97865;-73
2021/05/09 11:27:04;;;;;;;1.77;1.15;;;;;;;23.02;30.82;100057.31;5054945;27;96612;-73